Time;durP1;ratioP1;P1;durP2;ratioP2;P2;SDS_P1;SDS_P2;PMS_P1;PMS_P2;Temp;Humidity;BMP_temperature;BMP_pressure;BME280_temperature;BME280_humidity;BME280_pressure;Samples;Min_cycle;Max_cycle;Signal;HPM_P1;HPM_P2
2022/06/24 00:04:04;;;;;;;3.70;1.65;;;23.30;99.90;;;;;;12377231;28;20042;-82
2022/06/24 00:10:12;;;;;;;4.50;1.47;;;23.20;99.90;;;;;;12392301;28;20084;-81
2022/06/24 00:16:14;;;;;;;3.40;1.60;;;23.10;99.90;;;;;;12394255;28;20136;-81
2022/06/24 00:22:16;;;;;;;2.30;1.48;;;23.10;99.90;;;;;;12385667;28;20104;-82
2022/06/24 00:28:25;;;;;;;4.18;1.70;;;23.00;99.90;;;;;;12342554;28;20042;-82
2022/06/24 00:34:27;;;;;;;2.60;1.40;;;23.00;99.90;;;;;;12364916;28;20145;-81
2022/06/24 00:40:31;;;;;;;4.45;1.60;;;23.00;99.90;;;;;;12393979;28;20108;-82
2022/06/24 00:46:37;;;;;;;3.50;1.65;;;23.00;99.90;;;;;;12419215;28;20081;-81
2022/06/24 00:52:39;;;;;;;5.40;1.58;;;23.00;99.90;;;;;;12391386;28;20051;-81
2022/06/24 00:59:00;;;;;;;3.72;1.50;;;22.80;99.90;;;;;;12387067;28;20125;-81
2022/06/24 01:05:06;;;;;;;3.83;1.98;;;22.80;99.90;;;;;;12392633;28;20129;-82
2022/06/24 01:11:08;;;;;;;2.00;1.17;;;22.80;99.90;;;;;;12365485;28;20046;-81
2022/06/24 01:17:09;;;;;;;2.35;1.60;;;22.70;99.90;;;;;;12390161;28;20062;-81
2022/06/24 01:23:12;;;;;;;3.03;1.80;;;22.60;99.90;;;;;;12376223;28;20141;-81
2022/06/24 01:29:15;;;;;;;5.55;1.70;;;22.50;99.90;;;;;;12376992;28;20192;-81
2022/06/24 01:35:17;;;;;;;3.28;1.60;;;22.20;99.90;;;;;;12377674;28;20046;-81
2022/06/24 01:41:19;;;;;;;3.90;1.85;;;22.10;99.90;;;;;;12363925;28;20783;-81
2022/06/24 01:47:21;;;;;;;4.55;1.90;;;22.20;99.90;;;;;;12398923;28;20124;-81
2022/06/24 01:53:23;;;;;;;6.10;1.92;;;22.30;99.90;;;;;;12372644;28;20043;-81
2022/06/24 01:59:25;;;;;;;3.25;1.85;;;22.20;99.90;;;;;;12373137;28;20133;-81
2022/06/24 02:05:27;;;;;;;4.95;1.90;;;22.30;99.90;;;;;;12372284;28;20069;-81
2022/06/24 02:17:49;;;;;;;4.50;1.80;;;22.30;99.90;;;;;;12392651;28;20103;-82
2022/06/24 02:23:52;;;;;;;4.53;1.63;;;22.30;99.90;;;;;;12381704;28;20038;-81
2022/06/24 02:29:54;;;;;;;5.97;1.73;;;22.30;99.90;;;;;;12389537;28;20047;-81
2022/06/24 02:35:56;;;;;;;2.90;1.65;;;22.30;99.90;;;;;;12396303;28;20106;-82
2022/06/24 02:41:58;;;;;;;3.65;2.00;;;22.30;99.90;;;;;;12402730;28;20096;-81
2022/06/24 02:48:00;;;;;;;3.30;1.67;;;22.40;99.90;;;;;;12376110;28;20051;-81
2022/06/24 02:54:02;;;;;;;3.78;1.75;;;22.50;99.90;;;;;;12377358;28;20075;-82
2022/06/24 03:00:04;;;;;;;2.53;1.80;;;22.60;99.90;;;;;;12369858;28;20043;-81
2022/06/24 03:06:06;;;;;;;3.73;1.70;;;22.60;99.90;;;;;;12394830;28;20078;-81
2022/06/24 03:12:09;;;;;;;3.20;1.70;;;22.60;99.90;;;;;;12375772;28;20121;-81
2022/06/24 03:18:12;;;;;;;3.72;1.65;;;23.00;99.90;;;;;;12365082;28;20185;-81
2022/06/24 03:24:14;;;;;;;4.43;1.80;;;23.10;99.90;;;;;;12360427;28;20054;-80
2022/06/24 03:30:16;;;;;;;3.37;1.80;;;23.20;99.90;;;;;;12372068;28;20136;-81
2022/06/24 03:36:18;;;;;;;4.45;2.00;;;23.10;99.90;;;;;;12386943;28;20484;-81
2022/06/24 03:42:20;;;;;;;3.92;2.17;;;22.90;99.90;;;;;;12372572;28;20106;-81
2022/06/24 03:48:22;;;;;;;6.32;1.98;;;22.90;99.90;;;;;;12355305;28;20181;-81
2022/06/24 03:54:23;;;;;;;3.70;1.83;;;22.60;99.90;;;;;;12372035;28;20043;-81
2022/06/24 04:00:25;;;;;;;6.22;1.95;;;22.20;99.90;;;;;;12366647;28;20573;-81
2022/06/24 04:06:27;;;;;;;6.05;2.35;;;22.10;99.90;;;;;;12371390;28;20092;-82
2022/06/24 04:12:29;;;;;;;6.30;1.95;;;22.10;99.90;;;;;;12380202;28;20133;-82
2022/06/24 04:18:32;;;;;;;4.70;2.20;;;22.00;99.90;;;;;;12365377;28;20185;-81
2022/06/24 04:24:34;;;;;;;4.23;2.17;;;22.10;99.90;;;;;;12396989;28;20129;-81
2022/06/24 04:30:35;;;;;;;6.43;2.42;;;22.10;99.90;;;;;;12384121;28;20075;-81
2022/06/24 04:36:37;;;;;;;5.18;2.40;;;22.20;99.90;;;;;;12393629;28;20034;-81
2022/06/24 04:42:40;;;;;;;3.22;1.98;;;22.10;99.90;;;;;;12372522;28;20043;-82
2022/06/24 04:48:41;;;;;;;5.45;2.35;;;22.10;99.90;;;;;;12346762;28;20242;-81
2022/06/24 04:54:44;;;;;;;4.40;2.40;;;22.00;99.90;;;;;;12390350;28;20139;-80
2022/06/24 05:00:46;;;;;;;4.70;2.30;;;22.10;99.90;;;;;;12385433;28;20449;-81
2022/06/24 05:06:49;;;;;;;6.60;2.38;;;22.00;99.90;;;;;;12371479;28;20049;-81
2022/06/24 05:12:51;;;;;;;5.05;2.58;;;22.00;99.90;;;;;;12369665;28;20388;-81
2022/06/24 05:18:53;;;;;;;4.47;2.20;;;22.10;99.90;;;;;;12365131;28;20058;-80
2022/06/24 05:24:55;;;;;;;5.72;2.40;;;22.10;99.90;;;;;;12376732;28;20081;-82
2022/06/24 05:30:57;;;;;;;4.63;2.13;;;22.10;99.90;;;;;;12366134;28;20051;-82
2022/06/24 05:36:59;;;;;;;6.55;2.33;;;22.20;99.90;;;;;;12361864;28;20055;-81
2022/06/24 05:43:00;;;;;;;5.88;2.15;;;22.20;99.90;;;;;;12385758;28;20050;-81
2022/06/24 05:49:02;;;;;;;4.93;2.05;;;22.30;99.90;;;;;;12392891;28;20533;-82
2022/06/24 05:55:04;;;;;;;4.95;2.17;;;22.50;99.90;;;;;;12376166;28;20224;-80
2022/06/24 06:01:11;;;;;;;5.10;1.92;;;22.60;99.90;;;;;;12371130;28;20054;-82
2022/06/24 06:07:13;;;;;;;7.07;2.30;;;22.60;99.90;;;;;;12374638;28;20046;-81
2022/06/24 06:13:15;;;;;;;6.82;2.30;;;22.80;99.90;;;;;;12377486;28;20038;-82
2022/06/24 06:19:16;;;;;;;8.98;2.63;;;22.90;99.90;;;;;;12395076;28;20067;-82
2022/06/24 06:25:18;;;;;;;8.23;2.80;;;23.00;99.90;;;;;;12422511;28;20069;-81
2022/06/24 06:31:20;;;;;;;5.78;2.35;;;23.10;99.90;;;;;;12375053;28;20188;-82
2022/06/24 06:37:22;;;;;;;6.60;2.28;;;23.20;99.90;;;;;;12397972;28;20418;-82
2022/06/24 06:43:24;;;;;;;8.82;2.35;;;23.20;99.90;;;;;;12371254;28;20050;-81
2022/06/24 06:49:26;;;;;;;6.07;1.90;;;23.30;99.90;;;;;;12403846;28;20134;-82
2022/06/24 06:55:31;;;;;;;5.88;2.20;;;23.20;99.90;;;;;;12353636;28;20046;-81
2022/06/24 07:01:33;;;;;;;8.65;2.08;;;23.20;99.90;;;;;;12368907;28;20664;-81
2022/06/24 07:07:35;;;;;;;6.43;2.13;;;23.30;99.90;;;;;;12384137;28;20923;-82
2022/06/24 07:13:36;;;;;;;8.43;2.35;;;23.30;99.90;;;;;;12371656;28;20104;-81
2022/06/24 07:19:38;;;;;;;6.60;2.45;;;23.30;99.90;;;;;;12346907;28;20085;-82
2022/06/24 07:25:40;;;;;;;6.45;2.13;;;23.10;99.90;;;;;;12342032;28;20882;-82
2022/06/24 07:31:42;;;;;;;11.55;2.25;;;23.00;99.90;;;;;;12343044;28;20181;-82
2022/06/24 07:37:44;;;;;;;6.63;2.00;;;23.00;99.90;;;;;;12341288;28;20054;-80
2022/06/24 07:43:46;;;;;;;9.65;1.70;;;22.60;99.90;;;;;;12338188;28;20043;-81
2022/06/24 07:49:48;;;;;;;8.05;1.60;;;22.50;99.90;;;;;;12339752;28;20050;-81
2022/06/24 08:02:10;;;;;;;5.22;1.70;;;22.70;99.90;;;;;;12329007;28;20066;-81
2022/06/24 08:08:12;;;;;;;3.25;1.35;;;23.20;99.90;;;;;;12331968;28;20047;-82
2022/06/24 08:14:15;;;;;;;4.80;1.55;;;23.10;99.90;;;;;;12324016;28;20460;-81
2022/06/24 08:20:17;;;;;;;3.83;1.48;;;23.20;99.90;;;;;;12338346;28;20082;-82
2022/06/24 08:26:18;;;;;;;4.05;1.33;;;23.40;99.90;;;;;;12350910;28;20093;-81
2022/06/24 08:32:20;;;;;;;2.90;0.90;;;23.60;99.90;;;;;;12330494;28;20165;-81
2022/06/24 08:38:22;;;;;;;5.97;1.55;;;23.50;99.90;;;;;;12330235;28;20109;-81
2022/06/24 08:44:25;;;;;;;2.40;1.00;;;23.10;99.90;;;;;;12325299;28;20050;-81
2022/06/24 08:50:27;;;;;;;5.78;1.50;;;23.10;99.90;;;;;;12333588;28;20047;-82
2022/06/24 08:56:30;;;;;;;3.03;1.10;;;22.80;99.90;;;;;;12337440;28;20515;-81
2022/06/24 09:02:32;;;;;;;4.38;1.30;;;22.80;99.90;;;;;;12334174;28;20593;-80
2022/06/24 09:08:34;;;;;;;7.23;1.67;;;22.80;99.90;;;;;;12328732;28;20043;-81
2022/06/24 09:14:45;;;;;;;4.63;1.40;;;22.90;99.90;;;;;;12325590;28;20182;-81
2022/06/24 09:20:49;;;;;;;3.58;1.10;;;23.00;99.90;;;;;;12368287;28;20422;-81
2022/06/24 09:27:00;;;;;;;3.58;1.20;;;23.00;99.90;;;;;;12394172;28;20043;-81
2022/06/24 09:33:02;;;;;;;10.02;1.75;;;23.00;99.90;;;;;;12375780;28;20038;-81
2022/06/24 09:39:24;;;;;;;3.35;1.20;;;22.80;99.90;;;;;;12396119;28;20054;-82
2022/06/24 09:45:50;;;;;;;5.65;1.40;;;22.60;99.90;;;;;;12378190;28;20055;-82
2022/06/24 09:51:53;;;;;;;4.65;1.48;;;22.60;99.90;;;;;;12390277;28;20034;-82
2022/06/24 09:57:55;;;;;;;;;;;22.50;99.90;;;;;;12372172;28;20051;-82
2022/06/24 10:03:57;;;;;;;6.78;1.60;;;22.60;99.90;;;;;;12373982;28;20378;-82
2022/06/24 10:10:03;;;;;;;4.90;1.92;;;22.50;99.90;;;;;;12369089;28;20047;-81
2022/06/24 10:16:06;;;;;;;5.22;1.80;;;22.70;99.90;;;;;;12371179;28;20502;-82
2022/06/24 10:22:08;;;;;;;5.68;1.50;;;22.90;99.90;;;;;;12374387;28;20439;-82
2022/06/24 10:28:10;;;;;;;5.30;1.17;;;23.00;99.90;;;;;;12369979;28;20100;-82
2022/06/24 10:34:20;;;;;;;6.22;1.20;;;23.40;99.90;;;;;;12385926;28;20081;-82
2022/06/24 10:40:27;;;;;;;4.65;1.40;;;23.60;99.90;;;;;;12368428;28;20058;-82
2022/06/24 10:46:28;;;;;;;3.70;1.40;;;23.70;99.90;;;;;;12353197;28;20475;-83
2022/06/24 10:52:46;;;;;;;4.68;1.40;;;23.90;99.90;;;;;;12360586;28;20520;-82
2022/06/24 10:58:48;;;;;;;5.38;1.35;;;24.00;99.90;;;;;;12373655;28;20426;-82
2022/06/24 11:04:50;;;;;;;6.72;1.50;;;24.10;99.90;;;;;;12379306;28;20043;-80
2022/06/24 11:10:53;;;;;;;4.55;1.65;;;24.30;99.90;;;;;;12363439;28;20050;-81
2022/06/24 11:16:54;;;;;;;7.88;1.45;;;24.30;99.90;;;;;;12361418;28;20058;-82
2022/06/24 11:22:56;;;;;;;3.17;1.38;;;24.40;99.90;;;;;;12374295;28;20046;-83
2022/06/24 11:28:58;;;;;;;5.10;1.40;;;24.40;99.90;;;;;;12366332;28;20096;-82
2022/06/24 11:35:00;;;;;;;7.50;1.48;;;24.60;99.90;;;;;;12394751;28;20072;-82
2022/06/24 11:41:02;;;;;;;4.57;1.10;;;24.80;99.90;;;;;;12403173;28;20055;-82
2022/06/24 11:47:31;;;;;;;3.13;1.20;;;24.80;99.90;;;;;;12398496;28;20039;-83
2022/06/24 11:53:34;;;;;;;4.05;1.50;;;25.20;99.90;;;;;;12369906;28;20039;-81
2022/06/24 11:59:37;;;;;;;5.63;1.48;;;25.50;99.90;;;;;;12367250;28;20051;-82
2022/06/24 12:05:42;;;;;;;4.60;1.20;;;25.50;99.90;;;;;;12370481;28;20407;-82
2022/06/24 12:11:44;;;;;;;6.00;1.95;;;25.30;99.90;;;;;;12358253;28;20112;-81
2022/06/24 12:17:51;;;;;;;4.40;1.30;;;25.10;99.90;;;;;;12383123;28;20183;-82
2022/06/24 12:23:54;;;;;;;3.47;1.40;;;25.00;99.90;;;;;;12376059;28;20084;-83
2022/06/24 12:29:55;;;;;;;2.78;1.40;;;24.90;99.90;;;;;;12381344;28;20074;-82
2022/06/24 12:36:09;;;;;;;3.50;1.30;;;24.70;99.90;;;;;;12373581;28;20101;-81
2022/06/24 12:42:17;;;;;;;3.13;1.23;;;24.60;99.90;;;;;;12361981;28;20200;-81
2022/06/24 12:54:42;;;;;;;3.25;1.27;;;25.20;99.90;;;;;;12382916;28;20066;-82
2022/06/24 13:00:58;;;;;;;2.70;1.15;;;25.40;99.90;;;;;;12376097;28;20046;-83
2022/06/24 13:07:00;;;;;;;3.00;1.25;;;25.30;99.90;;;;;;12383910;28;20039;-82
2022/06/24 13:13:04;;;;;;;3.05;1.23;;;25.60;99.90;;;;;;12379997;28;20157;-83
2022/06/24 13:19:05;;;;;;;3.88;1.35;;;25.80;99.90;;;;;;12380768;28;20149;-82
2022/06/24 13:25:08;;;;;;;3.58;1.30;;;25.90;99.90;;;;;;12364827;28;20043;-81
2022/06/24 13:31:10;;;;;;;2.08;1.15;;;25.70;99.90;;;;;;12366709;28;20136;-83
2022/06/24 13:37:12;;;;;;;2.47;1.27;;;25.40;99.90;;;;;;12394314;28;20439;-80
2022/06/24 13:43:17;;;;;;;5.95;2.65;;;25.20;99.90;;;;;;12374519;28;20105;-82
2022/06/24 13:49:18;;;;;;;6.55;3.97;;;23.90;99.90;;;;;;12373176;28;20120;-81
2022/06/24 13:55:20;;;;;;;8.10;4.43;;;23.00;99.90;;;;;;12383663;28;20161;-82
2022/06/24 14:01:22;;;;;;;8.02;3.60;;;22.50;99.90;;;;;;12385320;28;20137;-80
2022/06/24 14:07:25;;;;;;;6.50;4.10;;;22.10;99.90;;;;;;12370359;28;20054;-82
2022/06/24 14:13:27;;;;;;;10.43;5.60;;;22.10;99.90;;;;;;12393709;28;20136;-81
2022/06/24 14:19:28;;;;;;;12.23;6.43;;;22.20;99.90;;;;;;12396057;28;20074;-80
2022/06/24 14:25:31;;;;;;;10.55;6.43;;;22.30;99.90;;;;;;12381994;28;20054;-80
2022/06/24 14:31:34;;;;;;;13.50;6.07;;;22.30;99.90;;;;;;12362794;28;20061;-81
2022/06/24 14:43:56;;;;;;;6.40;4.05;;;22.40;99.90;;;;;;12373268;28;20133;-81
2022/06/24 14:49:58;;;;;;;6.78;3.88;;;22.30;99.90;;;;;;12361582;28;20493;-80
2022/06/24 14:56:00;;;;;;;6.55;4.32;;;22.40;99.90;;;;;;12367729;28;20121;-80
2022/06/24 15:02:01;;;;;;;6.00;4.07;;;22.40;99.90;;;;;;12383507;28;20050;-80
2022/06/24 15:08:03;;;;;;;4.75;4.13;;;22.40;99.90;;;;;;12382223;28;20050;-81
2022/06/24 15:14:05;;;;;;;6.38;4.05;;;22.80;99.90;;;;;;12351457;28;20518;-80
2022/06/24 15:20:08;;;;;;;7.85;3.70;;;23.10;99.90;;;;;;12370702;28;20528;-80
2022/06/24 15:26:10;;;;;;;7.22;3.30;;;23.50;99.90;;;;;;12396433;28;20809;-80
2022/06/24 15:32:13;;;;;;;5.18;4.07;;;23.40;99.90;;;;;;12369605;28;20061;-80
2022/06/24 15:38:15;;;;;;;8.73;4.47;;;23.40;99.90;;;;;;12378925;28;20144;-79
2022/06/24 15:44:17;;;;;;;7.35;3.90;;;23.60;99.90;;;;;;12394280;28;20081;-80
2022/06/24 15:50:19;;;;;;;6.70;4.68;;;23.60;99.90;;;;;;12414545;28;20051;-80
2022/06/24 15:56:21;;;;;;;6.85;4.63;;;23.70;99.90;;;;;;12380381;28;20061;-79
2022/06/24 16:02:23;;;;;;;6.68;5.00;;;23.70;99.90;;;;;;12373315;28;20145;-80
2022/06/24 16:08:25;;;;;;;5.55;4.22;;;23.40;99.90;;;;;;12391428;28;20046;-80
2022/06/24 16:14:27;;;;;;;8.80;4.45;;;23.50;99.90;;;;;;12353728;28;20490;-81
2022/06/24 16:20:30;;;;;;;9.57;4.57;;;23.60;99.90;;;;;;12331321;28;20487;-80
2022/06/24 16:33:10;;;;;;;5.63;3.30;;;23.80;99.90;;;;;;12245361;28;20042;-80
2022/06/24 16:39:11;;;;;;;4.78;4.00;;;23.70;99.90;;;;;;12343347;28;20392;-81
2022/06/24 16:45:13;;;;;;;3.63;3.05;;;23.50;99.90;;;;;;12330534;28;20039;-81
2022/06/24 16:51:15;;;;;;;5.45;3.78;;;23.40;99.90;;;;;;12326454;28;20182;-81
2022/06/24 16:57:17;;;;;;;5.45;3.38;;;23.60;99.90;;;;;;12336136;28;20447;-81
2022/06/24 17:03:25;;;;;;;4.00;2.72;;;23.50;99.90;;;;;;12337622;28;20043;-79
2022/06/24 17:09:27;;;;;;;5.38;2.90;;;23.70;99.90;;;;;;12334275;28;20066;-80
2022/06/24 17:15:29;;;;;;;4.93;2.97;;;23.50;99.90;;;;;;12338719;28;20050;-80
2022/06/24 17:21:31;;;;;;;4.03;2.78;;;23.20;99.90;;;;;;12358750;28;20141;-82
2022/06/24 17:27:34;;;;;;;5.63;3.10;;;23.20;99.90;;;;;;12380685;28;20050;-81
2022/06/24 17:33:36;;;;;;;4.22;2.88;;;23.20;99.90;;;;;;12377202;28;20112;-81
2022/06/24 17:39:38;;;;;;;7.43;2.92;;;23.00;99.90;;;;;;12384803;28;20050;-81
2022/06/24 17:45:40;;;;;;;4.22;2.38;;;23.00;99.90;;;;;;12362404;28;20410;-80
2022/06/24 17:51:42;;;;;;;4.95;2.65;;;22.90;99.90;;;;;;12384791;28;20064;-81
2022/06/24 17:57:44;;;;;;;2.95;2.00;;;22.80;99.90;;;;;;12374318;28;20129;-81
2022/06/24 18:03:46;;;;;;;3.05;2.20;;;22.80;99.90;;;;;;12357383;28;20137;-80
2022/06/24 18:09:48;;;;;;;3.60;2.08;;;22.60;99.90;;;;;;12369950;28;20149;-80
2022/06/24 18:15:49;;;;;;;2.50;1.70;;;22.60;99.90;;;;;;12379287;28;20054;-80
2022/06/24 18:21:52;;;;;;;3.20;2.30;;;22.50;99.90;;;;;;12391596;28;20046;-80
2022/06/24 18:27:53;;;;;;;5.45;2.08;;;22.30;99.90;;;;;;12379713;28;20467;-81
2022/06/24 18:33:57;;;;;;;2.10;1.60;;;22.20;99.90;;;;;;12360419;28;20513;-81
2022/06/24 18:39:59;;;;;;;3.97;2.03;;;22.20;99.90;;;;;;12377503;28;20050;-80
2022/06/24 18:46:01;;;;;;;7.22;2.10;;;22.10;99.90;;;;;;12368314;28;20046;-81
2022/06/24 18:52:05;;;;;;;7.00;2.35;;;22.00;99.90;;;;;;12372931;28;20071;-81
2022/06/24 18:58:08;;;;;;;4.75;1.85;;;22.10;99.90;;;;;;12370284;28;20050;-81
2022/06/24 19:04:10;;;;;;;4.13;2.00;;;22.10;99.90;;;;;;12374799;28;20521;-81
2022/06/24 19:10:13;;;;;;;5.30;2.40;;;22.00;99.90;;;;;;12385875;28;20422;-81
2022/06/24 19:16:14;;;;;;;5.40;2.20;;;21.90;99.90;;;;;;12374768;28;20514;-81
2022/06/24 19:22:16;;;;;;;4.18;2.10;;;21.90;99.90;;;;;;12355263;28;20644;-80
2022/06/24 19:28:18;;;;;;;3.13;1.90;;;21.90;99.90;;;;;;12387765;28;20092;-81
2022/06/24 19:34:20;;;;;;;3.53;2.25;;;21.70;99.90;;;;;;12357118;28;20050;-81
2022/06/24 19:40:22;;;;;;;3.17;2.08;;;21.60;99.90;;;;;;12355705;28;20044;-80
2022/06/24 19:46:23;;;;;;;3.10;2.00;;;21.40;99.90;;;;;;12368765;28;20054;-80
2022/06/24 19:52:25;;;;;;;5.05;2.30;;;21.30;99.90;;;;;;12347790;28;20050;-80
2022/06/24 19:58:27;;;;;;;4.60;2.30;;;21.20;99.90;;;;;;12368543;28;20463;-80
2022/06/24 20:10:56;;;;;;;4.57;2.20;;;21.00;99.90;;;;;;12379191;28;20512;-81
2022/06/24 20:16:58;;;;;;;5.43;2.58;;;20.80;99.90;;;;;;12359456;28;20046;-80
2022/06/24 20:23:00;;;;;;;4.13;2.58;;;20.80;99.90;;;;;;12378274;28;20094;-81
2022/06/24 20:29:02;;;;;;;4.55;2.60;;;20.80;99.90;;;;;;12375634;28;20345;-81
2022/06/24 20:35:04;;;;;;;5.07;2.60;;;20.80;99.90;;;;;;12369285;28;20581;-81
2022/06/24 20:41:06;;;;;;;5.35;2.90;;;20.80;99.90;;;;;;12386789;28;20063;-80
2022/06/24 20:47:08;;;;;;;5.18;3.25;;;20.50;99.90;;;;;;12379803;28;20038;-80
2022/06/24 20:53:10;;;;;;;6.13;2.50;;;20.40;99.90;;;;;;12356285;28;20522;-81
2022/06/24 20:59:12;;;;;;;4.50;2.55;;;20.60;99.90;;;;;;12364320;28;20186;-81
2022/06/24 21:05:13;;;;;;;4.43;3.05;;;20.60;99.90;;;;;;12366082;28;20042;-80
2022/06/24 21:11:15;;;;;;;5.90;3.10;;;20.70;99.90;;;;;;12369976;28;20141;-81
2022/06/24 21:17:18;;;;;;;7.07;2.70;;;20.50;99.90;;;;;;12373147;28;20083;-81
2022/06/24 21:23:19;;;;;;;8.10;4.10;;;20.50;99.90;;;;;;12397064;28;20192;-81
2022/06/24 21:29:21;;;;;;;5.55;3.95;;;20.50;99.90;;;;;;12402584;28;20454;-81
2022/06/24 21:35:23;;;;;;;6.80;4.30;;;20.40;99.90;;;;;;12358969;28;20053;-80
2022/06/24 21:41:25;;;;;;;10.55;4.60;;;20.40;99.90;;;;;;12372898;28;20088;-80
2022/06/24 21:47:28;;;;;;;8.52;3.70;;;20.40;99.90;;;;;;12371302;28;20450;-81
2022/06/24 21:53:31;;;;;;;6.13;3.58;;;20.10;99.90;;;;;;12368925;28;20062;-80
2022/06/24 21:59:33;;;;;;;6.03;3.70;;;20.20;99.90;;;;;;12375818;28;20483;-80
2022/06/24 22:05:35;;;;;;;6.65;4.28;;;20.10;99.90;;;;;;12387728;28;20173;-81
2022/06/24 22:11:37;;;;;;;4.85;3.47;;;19.80;99.90;;;;;;12365819;28;20100;-81
2022/06/24 22:17:47;;;;;;;6.85;3.28;;;19.80;99.90;;;;;;12401653;28;20086;-82
2022/06/24 22:23:49;;;;;;;5.15;3.03;;;20.00;99.90;;;;;;12369022;28;20062;-81
2022/06/24 22:29:52;;;;;;;5.50;3.10;;;20.20;99.90;;;;;;12367641;28;20073;-81
2022/06/24 22:35:54;;;;;;;7.63;3.20;;;20.40;99.90;;;;;;12395066;28;20042;-81
2022/06/24 22:41:56;;;;;;;6.38;3.30;;;20.40;99.90;;;;;;12387796;28;20133;-81
2022/06/24 22:47:58;;;;;;;7.85;3.83;;;20.40;99.90;;;;;;12358763;28;20192;-81
2022/06/24 22:54:00;;;;;;;6.78;4.60;;;20.50;99.90;;;;;;12366767;28;20137;-81
2022/06/24 23:00:02;;;;;;;9.40;5.95;;;20.50;99.90;;;;;;12373776;28;21317;-81
2022/06/24 23:06:05;;;;;;;7.68;5.80;;;20.40;99.90;;;;;;12390920;28;20062;-81
2022/06/24 23:12:07;;;;;;;8.70;6.18;;;20.40;99.90;;;;;;12372191;28;20060;-81
2022/06/24 23:18:09;;;;;;;7.95;7.15;;;20.50;99.90;;;;;;12371322;28;20610;-81
2022/06/24 23:24:11;;;;;;;9.43;7.32;;;20.40;99.90;;;;;;12368330;28;20133;-82
2022/06/24 23:30:13;;;;;;;11.63;8.30;;;20.40;99.90;;;;;;12378238;28;20130;-81
2022/06/24 23:36:15;;;;;;;9.55;8.15;;;20.40;99.90;;;;;;12379809;28;20165;-81
2022/06/24 23:42:17;;;;;;;8.88;6.85;;;20.30;99.90;;;;;;12376271;28;20088;-81
2022/06/24 23:54:41;;;;;;;10.88;7.50;;;20.20;99.90;;;;;;12396737;28;20071;-81
